createdAt,value
2023-01-28T00:02:44.762Z,58.39
2023-01-28T00:07:52.024Z,57.98
2023-01-28T00:12:57.464Z,58.20
2023-01-28T00:18:02.973Z,57.38
2023-01-28T00:23:08.358Z,58.04
2023-01-28T00:28:13.751Z,57.74
2023-01-28T00:33:19.504Z,57.73
2023-01-28T00:38:24.985Z,57.33
2023-01-28T00:43:30.526Z,57.41
2023-01-28T00:48:37.452Z,57.42
2023-01-28T00:53:43.934Z,57.28
2023-01-28T00:58:49.757Z,57.49
2023-01-28T01:04:01.105Z,57.60
2023-01-28T01:09:10.183Z,57.10
2023-01-28T01:14:15.698Z,57.35
2023-01-28T01:19:21.156Z,57.09
2023-01-28T01:24:28.356Z,56.92
2023-01-28T01:29:34.169Z,57.23
2023-01-28T01:34:40.595Z,57.07
2023-01-28T01:39:45.976Z,56.48
2023-01-28T01:45:06.449Z,56.73
2023-01-28T01:50:18.920Z,56.74
2023-01-28T01:55:27.415Z,56.63
2023-01-28T02:00:32.931Z,56.77
2023-01-28T02:05:39.960Z,56.58
2023-01-28T02:10:49.068Z,56.41
2023-01-28T02:15:56.085Z,56.65
2023-01-28T02:21:23.864Z,56.65
2023-01-28T02:26:58.223Z,56.51
2023-01-28T02:32:06.725Z,56.34
2023-01-28T02:37:18.016Z,56.35
2023-01-28T02:42:27.382Z,56.38
2023-01-28T02:47:52.559Z,56.39
2023-01-28T02:53:20.079Z,56.43
2023-01-28T02:58:31.454Z,56.37
2023-01-28T03:03:43.363Z,56.17
2023-01-28T03:09:13.384Z,56.54
2023-01-28T03:14:39.274Z,56.14
2023-01-28T03:20:03.480Z,55.82
2023-01-28T03:25:30.515Z,56.86
2023-01-28T03:31:10.380Z,56.93
2023-01-28T03:36:35.846Z,57.02
2023-01-28T03:41:43.299Z,56.74
2023-01-28T03:46:49.089Z,57.29
2023-01-28T03:51:54.640Z,57.81
2023-01-28T03:57:00.243Z,58.10
2023-01-28T04:02:06.489Z,57.32
2023-01-28T04:07:15.580Z,58.36
2023-01-28T04:12:38.914Z,58.61
2023-01-28T04:17:50.777Z,58.24
2023-01-28T04:23:00.848Z,58.66
2023-01-28T04:28:07.195Z,58.64
2023-01-28T04:33:13.967Z,59.15
2023-01-28T04:38:21.038Z,58.92
2023-01-28T04:43:37.401Z,58.82
2023-01-28T04:48:50.210Z,59.27
2023-01-28T04:53:57.274Z,59.57
2023-01-28T04:59:08.515Z,59.11
2023-01-28T05:04:16.511Z,59.98
2023-01-28T05:09:22.284Z,60.05
2023-01-28T05:14:29.393Z,59.15
2023-01-28T05:19:36.533Z,59.92
2023-01-28T05:24:43.602Z,60.18
2023-01-28T05:29:49.119Z,60.11
2023-01-28T05:34:54.633Z,60.43
2023-01-28T05:40:00.105Z,59.85
2023-01-28T05:45:06.572Z,60.60
2023-01-28T05:50:15.931Z,60.04
2023-01-28T05:55:23.587Z,60.86
2023-01-28T06:00:29.307Z,60.96
2023-01-28T06:05:35.743Z,60.40
2023-01-28T06:10:41.852Z,60.86
2023-01-28T06:15:51.261Z,60.82
2023-01-28T06:20:58.468Z,61.20
2023-01-28T06:26:04.060Z,61.25
2023-01-28T06:31:09.937Z,61.01
2023-01-28T06:36:15.462Z,61.42
2023-01-28T06:41:20.848Z,61.64
2023-01-28T06:46:26.342Z,61.75
2023-01-28T06:51:31.898Z,62.09
2023-01-28T06:56:37.386Z,62.01
2023-01-28T07:01:42.953Z,62.79
2023-01-28T07:06:48.495Z,62.38
2023-01-28T07:11:54.032Z,62.53
2023-01-28T07:16:59.521Z,62.16
2023-01-28T07:22:05.445Z,62.95
2023-01-28T07:27:10.889Z,62.66
2023-01-28T07:32:16.349Z,62.32
2023-01-28T07:37:22.570Z,62.79
2023-01-28T07:42:28.092Z,63.22
2023-01-28T07:47:34.036Z,62.50
2023-01-28T07:52:41.962Z,62.64
2023-01-28T07:57:58.545Z,62.64
2023-01-28T08:03:06.732Z,62.60
2023-01-28T08:08:12.591Z,62.38
2023-01-28T08:13:18.933Z,62.93
2023-01-28T08:18:24.386Z,62.94
2023-01-28T08:23:30.427Z,62.54
2023-01-28T08:28:36.281Z,62.12
2023-01-28T08:33:42.242Z,62.41
2023-01-28T08:38:47.693Z,61.42
2023-01-28T08:43:53.098Z,61.43
2023-01-28T08:48:58.487Z,60.89
2023-01-28T08:54:04.195Z,60.85
2023-01-28T08:59:09.839Z,61.30
2023-01-28T09:04:15.320Z,60.93
2023-01-28T09:09:20.884Z,60.69
2023-01-28T09:14:26.547Z,60.14
2023-01-28T09:19:32.031Z,60.29
2023-01-28T09:24:39.007Z,60.29
2023-01-28T09:29:44.690Z,59.79
2023-01-28T09:34:50.293Z,59.79
2023-01-28T09:39:55.762Z,59.40
2023-01-28T09:45:09.840Z,59.40
2023-01-28T09:50:30.673Z,59.41
2023-01-28T09:55:39.358Z,59.77
2023-01-28T10:01:06.050Z,59.79
2023-01-28T10:06:17.229Z,59.22
2023-01-28T10:11:25.838Z,59.80
2023-01-28T10:16:42.994Z,60.22
2023-01-28T10:22:10.013Z,60.13
2023-01-28T10:27:24.682Z,60.46
2023-01-28T10:32:34.400Z,60.68
2023-01-28T10:37:41.519Z,60.68
2023-01-28T10:42:47.482Z,61.23
2023-01-28T10:48:05.157Z,61.04
2023-01-28T10:53:10.589Z,61.30
2023-01-28T10:58:24.920Z,61.19
2023-01-28T11:03:35.913Z,61.36
2023-01-28T11:08:45.677Z,61.41
2023-01-28T11:13:54.134Z,61.51
2023-01-28T11:19:03.218Z,61.51
2023-01-28T11:24:22.639Z,61.18
2023-01-28T11:29:36.973Z,61.78
2023-01-28T11:34:45.453Z,61.78
2023-01-28T11:39:52.425Z,61.54
2023-01-28T11:44:57.883Z,61.41
2023-01-28T11:50:19.276Z,61.25
2023-01-28T11:55:40.544Z,61.37
2023-01-28T12:01:21.134Z,60.69
2023-01-28T12:06:41.968Z,60.46
2023-01-28T12:12:13.089Z,60.57
2023-01-28T12:17:30.703Z,60.23
2023-01-28T12:23:00.664Z,60.60
2023-01-28T12:28:18.421Z,60.60
2023-01-28T12:33:57.440Z,59.69
2023-01-28T12:39:14.768Z,60.04
2023-01-28T12:44:26.069Z,59.39
2023-01-28T12:49:43.291Z,59.48
2023-01-28T12:55:13.702Z,59.51
2023-01-28T13:00:28.135Z,59.30
2023-01-28T13:05:36.633Z,59.21
2023-01-28T13:10:47.173Z,59.01
2023-01-28T13:15:52.918Z,58.43
2023-01-28T13:20:58.523Z,58.35
2023-01-28T13:26:25.272Z,57.63
2023-01-28T13:31:33.697Z,57.64
2023-01-28T13:36:42.566Z,57.07
2023-01-28T13:41:51.048Z,56.83
2023-01-28T13:47:02.925Z,57.68
2023-01-28T13:52:14.171Z,56.73
2023-01-28T13:57:25.608Z,56.38
2023-01-28T14:02:56.807Z,56.03
2023-01-28T14:08:26.404Z,56.75
2023-01-28T14:13:34.963Z,55.71
2023-01-28T14:18:45.334Z,55.90
2023-01-28T14:23:56.986Z,55.30
2023-01-28T14:29:11.129Z,55.15
2023-01-28T14:34:20.157Z,55.15
2023-01-28T14:39:33.939Z,54.72
2023-01-28T14:44:44.585Z,54.72
2023-01-28T14:50:01.976Z,54.64
2023-01-28T14:55:22.463Z,54.59
2023-01-28T15:00:31.237Z,54.57
2023-01-28T15:05:37.015Z,54.75
2023-01-28T15:10:42.564Z,54.63
2023-01-28T15:15:51.172Z,54.86
2023-01-28T15:20:57.990Z,54.76
2023-01-28T15:26:09.075Z,54.62
2023-01-28T15:31:26.309Z,54.86
2023-01-28T15:36:32.867Z,54.94
2023-01-28T15:41:40.534Z,55.20
2023-01-28T15:46:46.561Z,55.20
2023-01-28T15:51:52.471Z,55.15
2023-01-28T15:56:59.947Z,55.30
2023-01-28T16:02:25.411Z,55.38
2023-01-28T16:07:34.194Z,55.44
2023-01-28T16:12:39.715Z,55.84
2023-01-28T16:17:48.169Z,55.92
2023-01-28T16:22:56.443Z,55.91
2023-01-28T16:28:04.639Z,56.22
2023-01-28T16:33:22.118Z,56.13
2023-01-28T16:38:27.690Z,56.50
2023-01-28T16:48:38.715Z,56.93
2023-01-28T16:53:45.143Z,57.11
2023-01-28T16:58:50.876Z,57.38
2023-01-28T17:03:56.926Z,57.55
2023-01-28T17:09:02.517Z,57.80
2023-01-28T17:14:08.344Z,58.00
2023-01-28T17:19:13.779Z,58.47
2023-01-28T17:24:19.273Z,58.54
2023-01-28T17:29:24.828Z,58.52
2023-01-28T17:34:31.488Z,58.61
2023-01-28T17:39:37.019Z,58.48
2023-01-28T17:44:42.463Z,58.80
2023-01-28T17:49:47.917Z,58.83
2023-01-28T17:54:53.596Z,59.23
2023-01-28T17:59:59.074Z,59.25
2023-01-28T18:05:04.914Z,60.16
2023-01-28T18:10:11.441Z,59.77
2023-01-28T18:15:17.403Z,59.57
2023-01-28T18:20:23.165Z,59.82
2023-01-28T18:25:28.923Z,59.96
2023-01-28T18:30:34.337Z,59.89
2023-01-28T18:35:44.568Z,60.08
2023-01-28T18:40:51.483Z,60.24
2023-01-28T18:45:56.921Z,60.02
2023-01-28T18:51:02.428Z,60.29
2023-01-28T18:56:09.315Z,60.44
2023-01-28T19:01:14.872Z,60.60
2023-01-28T19:06:20.449Z,61.07
2023-01-28T19:11:27.974Z,61.41
2023-01-28T19:16:35.500Z,61.68
2023-01-28T19:21:41.346Z,61.88
2023-01-28T19:26:46.959Z,61.89
2023-01-28T19:31:52.612Z,62.26
2023-01-28T19:36:58.159Z,62.62
2023-01-28T19:42:03.629Z,62.72
2023-01-28T19:47:09.232Z,63.25
2023-01-28T19:52:14.693Z,63.43
2023-01-28T19:57:20.543Z,63.55
2023-01-28T20:02:26.070Z,63.83
2023-01-28T20:07:31.691Z,64.15
2023-01-28T20:12:37.221Z,64.17
2023-01-28T20:17:42.763Z,64.49
2023-01-28T20:22:49.252Z,64.50
2023-01-28T20:27:54.640Z,64.66
2023-01-28T20:33:00.025Z,64.84
2023-01-28T20:38:05.651Z,65.29
2023-01-28T20:43:11.686Z,65.21
2023-01-28T20:48:17.226Z,65.30
2023-01-28T20:53:23.948Z,65.52
2023-01-28T20:58:29.853Z,65.48
2023-01-28T21:03:35.870Z,65.55
2023-01-28T21:08:41.436Z,65.88
2023-01-28T21:13:47.259Z,65.73
2023-01-28T21:18:53.034Z,66.03
2023-01-28T21:24:01.090Z,66.27
2023-01-28T21:29:07.035Z,66.29
2023-01-28T21:34:13.458Z,66.31
2023-01-28T21:39:19.023Z,66.64
2023-01-28T21:44:24.599Z,66.48
2023-01-28T21:49:30.056Z,66.53
2023-01-28T21:54:36.124Z,66.83
2023-01-28T21:59:41.639Z,66.93
2023-01-28T22:04:49.382Z,67.13
2023-01-28T22:09:54.907Z,64.72
2023-01-28T22:15:00.376Z,65.99
2023-01-28T22:20:06.659Z,66.31
2023-01-28T22:25:12.254Z,66.67
2023-01-28T22:30:18.519Z,67.02
2023-01-28T22:35:23.977Z,67.20
2023-01-28T22:40:29.509Z,67.50
2023-01-28T22:45:35.102Z,67.51
2023-01-28T22:50:40.568Z,67.70
2023-01-28T22:55:46.122Z,67.82
2023-01-28T23:00:51.923Z,68.06
2023-01-28T23:06:02.316Z,68.05
2023-01-28T23:11:09.339Z,68.27
2023-01-28T23:16:32.716Z,68.37
2023-01-28T23:21:56.188Z,68.53
2023-01-28T23:27:03.132Z,68.64
2023-01-28T23:32:11.442Z,68.96
2023-01-28T23:37:17.828Z,69.16
2023-01-28T23:42:23.762Z,69.03
2023-01-28T23:47:29.254Z,69.50
2023-01-28T23:52:34.703Z,69.14
2023-01-28T23:57:40.828Z,69.28
